createdAt,value
2022-08-05T00:00:25.947Z,17.70
2022-08-05T00:02:57.216Z,17.61
2022-08-05T00:05:27.187Z,17.54
2022-08-05T00:08:32.948Z,17.73
2022-08-05T00:11:04.336Z,17.70
2022-08-05T00:13:39.064Z,17.48
2022-08-05T00:16:12.157Z,17.52
2022-08-05T00:18:44.486Z,17.38
2022-08-05T00:21:14.768Z,17.46
2022-08-05T00:23:45.682Z,17.50
2022-08-05T00:26:17.154Z,17.43
2022-08-05T00:28:46.031Z,17.37
2022-08-05T00:31:15.590Z,17.41
2022-08-05T00:34:54.424Z,17.46
2022-08-05T00:37:11.542Z,17.43
2022-08-05T00:39:21.541Z,17.37
2022-08-05T00:41:55.563Z,17.37
2022-08-05T00:44:30.608Z,17.42
2022-08-05T00:47:02.066Z,17.37
2022-08-05T00:49:44.757Z,17.43
2022-08-05T00:52:23.917Z,17.35
2022-08-05T00:54:57.378Z,17.61
2022-08-05T00:57:31.595Z,17.67
2022-08-05T01:00:11.167Z,17.72
2022-08-05T01:02:41.325Z,17.65
2022-08-05T01:05:12.904Z,17.51
2022-08-05T01:08:41.179Z,17.49
2022-08-05T01:10:36.758Z,17.51
2022-08-05T01:13:13.252Z,17.49
2022-08-05T01:15:55.064Z,17.46
2022-08-05T01:18:32.872Z,17.44
2022-08-05T01:21:22.807Z,17.51
2022-08-05T01:24:14.301Z,17.45
2022-08-05T01:26:55.587Z,17.35
2022-08-05T01:29:32.249Z,17.51
2022-08-05T01:32:12.524Z,17.44
2022-08-05T01:34:46.849Z,17.33
2022-08-05T01:37:25.073Z,17.48
2022-08-05T01:39:58.947Z,17.23
2022-08-05T01:42:28.957Z,17.29
2022-08-05T01:45:02.329Z,17.32
2022-08-05T01:47:39.235Z,17.32
2022-08-05T01:50:15.710Z,17.21
2022-08-05T01:52:49.968Z,17.16
2022-08-05T01:55:21.515Z,17.08
2022-08-05T01:58:11.255Z,17.10
2022-08-05T02:00:45.563Z,17.12
2022-08-05T02:03:28.917Z,17.03
2022-08-05T02:06:03.376Z,17.05
2022-08-05T02:08:55.004Z,17.05
2022-08-05T02:11:33.146Z,16.96
2022-08-05T02:14:06.433Z,16.88
2022-08-05T02:16:45.271Z,16.90
2022-08-05T02:19:18.810Z,16.94
2022-08-05T02:21:53.392Z,16.93
2022-08-05T02:24:24.637Z,16.90
2022-08-05T02:26:56.858Z,16.95
2022-08-05T02:30:00.086Z,16.95
2022-08-05T02:32:24.265Z,16.79
2022-08-05T02:35:02.174Z,16.82
2022-08-05T02:37:47.686Z,16.79
2022-08-05T02:40:24.316Z,16.69
2022-08-05T02:42:55.359Z,16.68
2022-08-05T02:45:25.480Z,16.67
2022-08-05T02:48:06.748Z,16.77
2022-08-05T02:50:43.874Z,16.73
2022-08-05T02:53:18.839Z,16.71
2022-08-05T02:55:59.568Z,16.74
2022-08-05T02:58:30.266Z,16.81
2022-08-05T03:01:04.744Z,16.65
2022-08-05T03:04:03.430Z,16.57
2022-08-05T03:06:54.423Z,16.71
2022-08-05T03:09:15.987Z,16.54
2022-08-05T03:11:55.787Z,16.73
2022-08-05T03:14:26.778Z,16.59
2022-08-05T03:16:55.159Z,16.53
2022-08-05T03:19:34.594Z,16.58
2022-08-05T03:22:04.858Z,16.63
2022-08-05T03:24:47.077Z,16.52
2022-08-05T03:27:15.862Z,16.66
2022-08-05T03:29:45.519Z,16.56
2022-08-05T03:32:32.599Z,16.55
2022-08-05T03:35:04.626Z,16.55
2022-08-05T03:37:44.754Z,16.65
2022-08-05T03:40:31.257Z,16.61
2022-08-05T03:43:01.333Z,16.49
2022-08-05T03:45:57.315Z,16.43
2022-08-05T03:48:30.090Z,16.72
2022-08-05T03:52:38.943Z,16.62
2022-08-05T03:55:06.939Z,16.51
2022-08-05T03:57:00.026Z,16.54
2022-08-05T03:59:47.000Z,16.56
2022-08-05T04:02:37.677Z,16.43
2022-08-05T04:05:09.717Z,16.39
2022-08-05T04:07:57.324Z,16.48
2022-08-05T04:10:30.891Z,16.50
2022-08-05T04:13:04.325Z,16.44
2022-08-05T04:15:33.371Z,16.60
2022-08-05T04:18:08.002Z,16.53
2022-08-05T04:20:38.344Z,16.29
2022-08-05T04:23:12.645Z,16.45
2022-08-05T04:25:57.520Z,16.30
2022-08-05T04:28:30.547Z,16.52
2022-08-05T04:31:01.647Z,16.54
2022-08-05T04:34:19.046Z,16.46
2022-08-05T04:36:49.443Z,16.64
2022-08-05T04:39:13.998Z,16.47
2022-08-05T04:41:42.127Z,16.66
2022-08-05T04:44:12.601Z,16.76
2022-08-05T04:46:40.974Z,16.75
2022-08-05T04:49:15.365Z,16.53
2022-08-05T04:51:44.363Z,16.56
2022-08-05T04:54:14.922Z,16.66
2022-08-05T04:56:43.678Z,16.56
2022-08-05T04:59:21.789Z,16.53
2022-08-05T05:02:06.993Z,16.56
2022-08-05T05:04:44.031Z,16.69
2022-08-05T05:07:16.085Z,16.86
2022-08-05T05:09:46.804Z,16.82
2022-08-05T05:12:15.046Z,16.90
2022-08-05T05:14:50.882Z,16.81
2022-08-05T05:17:24.371Z,17.07
2022-08-05T05:19:56.654Z,16.99
2022-08-05T05:22:26.497Z,17.02
2022-08-05T05:24:59.803Z,16.82
2022-08-05T05:27:45.144Z,16.67
2022-08-05T05:30:29.803Z,16.89
2022-08-05T05:33:09.443Z,16.85
2022-08-05T05:35:45.422Z,16.91
2022-08-05T05:38:14.435Z,16.77
2022-08-05T05:40:50.089Z,16.86
2022-08-05T05:43:21.850Z,16.79
2022-08-05T05:45:56.420Z,16.89
2022-08-05T05:48:27.386Z,16.73
2022-08-05T05:50:55.978Z,16.61
2022-08-05T05:53:24.820Z,16.67
2022-08-05T05:56:01.390Z,16.65
2022-08-05T05:58:32.214Z,16.63
2022-08-05T06:01:13.299Z,16.45
2022-08-05T06:04:01.038Z,16.51
2022-08-05T06:06:31.275Z,16.60
2022-08-05T06:09:03.900Z,16.90
2022-08-05T06:11:34.041Z,17.07
2022-08-05T06:14:02.770Z,17.55
2022-08-05T06:16:37.281Z,17.60
2022-08-05T06:19:08.109Z,17.81
2022-08-05T06:21:38.790Z,17.86
2022-08-05T06:24:11.944Z,18.22
2022-08-05T06:26:51.714Z,18.13
2022-08-05T06:29:42.821Z,17.88
2022-08-05T06:32:25.172Z,18.36
2022-08-05T06:34:58.772Z,18.65
2022-08-05T06:37:57.304Z,18.91
2022-08-05T06:40:18.503Z,18.99
2022-08-05T06:42:52.507Z,19.38
2022-08-05T06:45:44.548Z,20.42
2022-08-05T06:48:36.901Z,20.56
2022-08-05T06:51:00.151Z,20.84
2022-08-05T06:53:29.778Z,20.53
2022-08-05T06:56:06.562Z,19.95
2022-08-05T06:58:55.915Z,21.50
2022-08-05T07:01:34.126Z,21.75
2022-08-05T07:04:03.402Z,22.80
2022-08-05T07:06:31.753Z,22.33
2022-08-05T07:09:05.005Z,22.95
2022-08-05T07:12:00.385Z,21.13
2022-08-05T07:14:49.473Z,22.59
2022-08-05T07:18:00.014Z,22.28
2022-08-05T07:20:38.748Z,22.30
2022-08-05T07:23:08.601Z,22.15
2022-08-05T07:25:56.213Z,22.73
2022-08-05T07:28:25.314Z,22.86
2022-08-05T07:31:00.263Z,23.41
2022-08-05T07:33:37.019Z,22.81
2022-08-05T07:36:20.839Z,22.04
2022-08-05T07:38:59.525Z,22.12
2022-08-05T07:42:08.866Z,21.39
2022-08-05T09:42:24.141Z,23.78
2022-08-05T09:45:17.493Z,24.40
2022-08-05T09:47:54.973Z,22.78
2022-08-05T09:50:38.934Z,23.60
2022-08-05T09:53:22.721Z,24.78
2022-08-05T09:56:03.964Z,24.39
2022-08-05T09:58:34.742Z,23.88
2022-08-05T10:01:14.696Z,24.44
2022-08-05T10:03:59.370Z,24.63
2022-08-05T10:06:28.628Z,24.30
2022-08-05T10:08:57.707Z,25.20
2022-08-05T10:11:31.401Z,24.69
2022-08-05T10:14:21.907Z,25.07
2022-08-05T10:16:52.875Z,25.31
2022-08-05T10:19:23.595Z,23.88
2022-08-05T10:22:00.474Z,23.91
2022-08-05T10:24:29.312Z,24.37
2022-08-05T10:27:01.560Z,24.98
2022-08-05T10:30:41.969Z,24.08
2022-08-05T10:32:54.510Z,24.03
2022-08-05T10:35:14.810Z,23.95
2022-08-05T10:37:44.999Z,24.70
2022-08-05T10:40:28.095Z,24.68
2022-08-05T10:43:01.248Z,23.64
2022-08-05T10:45:40.527Z,23.70
2022-08-05T10:48:57.450Z,24.68
2022-08-05T10:51:29.222Z,24.86
2022-08-05T10:54:29.870Z,23.43
2022-08-05T10:57:34.309Z,24.00
2022-08-05T11:04:00.955Z,24.53
2022-08-05T11:11:06.963Z,24.44
2022-08-05T11:13:58.351Z,25.19
2022-08-05T11:16:47.929Z,25.65
2022-08-05T11:20:10.845Z,25.75
2022-08-05T11:22:54.089Z,24.01
2022-08-05T11:26:06.004Z,25.25
2022-08-05T11:28:55.821Z,25.14
2022-08-05T11:31:57.005Z,25.24
2022-08-05T11:38:29.105Z,24.13
2022-08-05T11:41:58.204Z,23.83
2022-08-05T11:44:41.258Z,23.36
2022-08-05T11:47:48.795Z,23.07
2022-08-05T11:50:21.909Z,22.33
2022-08-05T11:52:57.222Z,22.92
2022-08-05T11:55:31.669Z,23.04
2022-08-05T11:58:09.615Z,22.82
2022-08-05T12:00:44.397Z,21.71
2022-08-05T12:03:23.789Z,21.78
2022-08-05T12:06:01.275Z,22.00
2022-08-05T12:08:32.843Z,22.00
2022-08-05T12:11:20.612Z,23.32
2022-08-05T12:14:07.608Z,23.79
2022-08-05T12:16:45.351Z,23.65
2022-08-05T12:20:26.136Z,22.65
2022-08-05T12:22:30.953Z,22.16
2022-08-05T12:25:06.601Z,21.85
2022-08-05T12:27:52.933Z,22.20
2022-08-05T12:30:28.993Z,22.73
2022-08-05T12:33:07.235Z,24.25
2022-08-05T12:36:03.930Z,23.63
2022-08-05T12:38:47.751Z,23.46
2022-08-05T12:41:22.115Z,24.85
2022-08-05T12:44:06.378Z,23.30
2022-08-05T12:47:02.600Z,22.71
2022-08-05T12:50:04.166Z,22.52
2022-08-05T12:52:44.415Z,22.61
2022-08-05T12:55:28.344Z,24.71
2022-08-05T12:58:50.934Z,24.83
2022-08-05T13:02:02.757Z,25.68
2022-08-05T13:03:58.006Z,24.38
2022-08-05T13:06:29.689Z,24.57
2022-08-05T13:09:01.566Z,24.31
2022-08-05T13:12:01.648Z,25.55
2022-08-05T13:14:36.325Z,25.69
2022-08-05T13:17:11.573Z,24.10
2022-08-05T13:19:52.674Z,24.49
2022-08-05T13:22:28.437Z,24.17
2022-08-05T13:25:05.610Z,23.22
2022-08-05T13:27:42.271Z,24.52
2022-08-05T13:30:38.891Z,23.93
2022-08-05T13:34:21.507Z,23.20
2022-08-05T13:36:29.012Z,21.96
2022-08-05T13:38:58.206Z,21.98
2022-08-05T13:41:37.568Z,22.50
2022-08-05T13:44:07.952Z,23.32
2022-08-05T13:47:01.835Z,22.36
2022-08-05T13:49:29.741Z,21.81
2022-08-05T13:52:13.591Z,21.67
2022-08-05T13:54:43.587Z,21.41
2022-08-05T13:57:24.720Z,22.23
2022-08-05T13:59:57.534Z,22.33
2022-08-05T14:02:29.867Z,21.40
2022-08-05T14:05:29.399Z,21.65
2022-08-05T14:08:21.129Z,22.31
2022-08-05T14:10:59.626Z,22.38
2022-08-05T14:13:32.194Z,22.74
2022-08-05T14:16:08.238Z,23.02
2022-08-05T14:18:41.322Z,24.29
2022-08-05T14:22:06.984Z,23.87
2022-08-05T14:24:01.375Z,22.99
2022-08-05T14:26:35.748Z,22.00
2022-08-05T14:29:16.310Z,23.21
2022-08-05T14:32:02.379Z,22.65
2022-08-05T14:34:35.744Z,21.99
2022-08-05T14:37:04.711Z,22.54
2022-08-05T14:39:49.793Z,24.09
2022-08-05T14:42:28.834Z,24.65
2022-08-05T14:45:20.751Z,24.06
2022-08-05T14:48:03.644Z,24.27
2022-08-05T14:50:35.995Z,24.68
2022-08-05T14:53:14.858Z,25.26
2022-08-05T14:55:52.377Z,25.10
2022-08-05T14:58:22.818Z,24.72
2022-08-05T15:00:59.612Z,26.04
2022-08-05T15:03:39.169Z,25.51
2022-08-05T15:06:15.083Z,23.15
2022-08-05T15:08:59.810Z,24.02
2022-08-05T15:11:53.218Z,24.60
2022-08-05T15:14:35.753Z,23.47
2022-08-05T15:17:45.018Z,22.29
2022-08-05T15:20:04.179Z,22.50
2022-08-05T15:22:33.777Z,23.95
2022-08-05T15:25:13.580Z,24.23
2022-08-05T15:27:52.033Z,24.38
2022-08-05T15:30:22.785Z,24.41
2022-08-05T15:32:55.071Z,24.17
2022-08-05T15:35:26.510Z,24.16
2022-08-05T15:38:33.059Z,24.17
2022-08-05T15:41:20.193Z,24.65
2022-08-05T15:43:51.461Z,23.37
2022-08-05T15:46:26.877Z,22.30
2022-08-05T15:49:26.318Z,22.89
2022-08-05T15:52:29.509Z,23.07
2022-08-05T15:55:19.682Z,23.40
2022-08-05T15:57:54.216Z,23.98
2022-08-05T16:00:42.924Z,24.11
2022-08-05T16:03:18.646Z,23.87
2022-08-05T16:06:32.327Z,22.95
2022-08-05T16:09:41.991Z,23.83
2022-08-05T16:12:16.893Z,23.18
2022-08-05T16:14:48.979Z,22.79
2022-08-05T16:17:18.762Z,21.97
2022-08-05T16:20:05.297Z,20.85
2022-08-05T16:22:37.085Z,20.87
2022-08-05T16:25:33.845Z,20.91
2022-08-05T16:28:13.849Z,20.71
2022-08-05T16:30:45.938Z,21.80
2022-08-05T16:33:18.480Z,22.93
2022-08-05T16:35:52.741Z,22.73
2022-08-05T16:38:28.044Z,23.12
2022-08-05T16:43:56.484Z,22.59
2022-08-05T16:46:30.283Z,20.52
2022-08-05T16:49:00.369Z,20.81
2022-08-05T16:51:42.603Z,21.72
2022-08-05T16:54:28.658Z,21.91
2022-08-05T16:57:00.201Z,21.74
2022-08-05T16:59:33.931Z,22.24
2022-08-05T17:05:12.999Z,21.88
2022-08-05T17:07:54.427Z,21.67
2022-08-05T17:10:26.491Z,21.73
2022-08-05T17:16:02.751Z,22.07
2022-08-05T17:18:50.470Z,22.52
2022-08-05T17:21:23.637Z,22.30
2022-08-05T17:27:07.527Z,22.48
2022-08-05T17:29:59.753Z,21.83
2022-08-05T17:32:35.259Z,21.72
2022-08-05T17:38:00.467Z,21.42
2022-08-05T17:40:57.341Z,20.96
2022-08-05T17:43:50.493Z,20.56
2022-08-05T17:46:16.146Z,20.88
2022-08-05T17:48:50.605Z,20.66
2022-08-05T17:51:21.748Z,20.20
2022-08-05T17:54:03.406Z,21.06
2022-08-05T17:56:48.982Z,21.45
2022-08-05T17:59:22.588Z,20.72
2022-08-05T18:02:03.240Z,20.60
2022-08-05T18:22:07.160Z,19.56
2022-08-05T18:25:00.644Z,19.39
2022-08-05T18:27:51.940Z,19.54
2022-08-05T18:31:33.722Z,19.09
2022-08-05T18:34:41.115Z,18.99
2022-08-05T18:41:55.981Z,17.57
2022-08-05T18:44:49.360Z,17.19
2022-08-05T18:57:54.011Z,16.13
2022-08-05T19:15:59.138Z,15.25
2022-08-05T19:31:44.813Z,14.60
2022-08-05T19:34:19.931Z,14.60
2022-08-05T19:37:09.732Z,14.41
2022-08-05T19:54:49.677Z,13.19
2022-08-05T20:04:45.857Z,12.89
2022-08-05T20:10:11.773Z,12.99
2022-08-05T20:18:38.474Z,13.13
2022-08-05T20:21:08.450Z,12.84
2022-08-05T20:23:49.431Z,13.04
2022-08-05T20:26:31.710Z,12.95
2022-08-05T20:29:06.491Z,13.26
2022-08-05T20:31:59.767Z,13.22
2022-08-05T20:35:01.982Z,12.91
2022-08-05T20:38:05.610Z,12.85
2022-08-05T20:41:11.145Z,12.14
2022-08-05T20:44:00.401Z,12.26
2022-08-05T20:46:33.613Z,12.10
2022-08-05T20:49:02.489Z,12.11
2022-08-05T20:51:54.236Z,11.80
2022-08-05T20:54:42.983Z,11.86
2022-08-05T20:57:43.347Z,11.98
2022-08-05T21:00:49.837Z,11.89
2022-08-05T21:03:24.242Z,11.48
2022-08-05T21:05:55.923Z,11.49
2022-08-05T21:08:42.295Z,11.75
2022-08-05T21:12:09.534Z,11.59
2022-08-05T21:14:14.857Z,11.67
2022-08-05T21:16:53.950Z,11.61
2022-08-05T21:19:23.516Z,11.30
2022-08-05T21:21:54.073Z,11.72
2022-08-05T21:24:25.389Z,11.60
2022-08-05T21:27:00.369Z,11.63
2022-08-05T21:29:40.786Z,11.88
2022-08-05T21:32:11.950Z,11.37
2022-08-05T21:34:55.980Z,11.49
2022-08-05T21:37:40.993Z,11.46
2022-08-05T21:40:14.231Z,11.41
2022-08-05T21:42:47.640Z,11.39
2022-08-05T21:45:56.511Z,11.48
2022-08-05T21:48:24.763Z,11.42
2022-08-05T21:50:54.489Z,11.16
2022-08-05T21:53:27.729Z,11.30
2022-08-05T21:56:06.619Z,11.17
2022-08-05T21:58:57.510Z,11.66
2022-08-05T22:01:27.101Z,11.56
2022-08-05T22:03:57.762Z,11.23
2022-08-05T22:06:39.660Z,11.18
2022-08-05T22:09:13.150Z,11.07
2022-08-05T22:11:46.769Z,11.36
2022-08-05T22:14:35.393Z,11.17
2022-08-05T22:17:15.977Z,11.38
2022-08-05T22:20:02.801Z,11.34
2022-08-05T22:22:55.827Z,11.37
2022-08-05T22:26:09.720Z,11.06
2022-08-05T22:28:33.017Z,11.37
2022-08-05T22:31:05.569Z,11.18
2022-08-05T22:33:58.606Z,11.09
2022-08-05T22:36:33.099Z,11.28
2022-08-05T22:39:09.073Z,11.25
2022-08-05T22:42:10.517Z,11.13
2022-08-05T22:44:32.886Z,10.99
2022-08-05T22:47:05.760Z,11.08
2022-08-05T22:50:19.393Z,10.83
2022-08-05T22:52:32.453Z,10.94
2022-08-05T22:55:19.168Z,11.07
2022-08-05T22:57:49.841Z,10.86
2022-08-05T23:00:20.861Z,11.07
2022-08-05T23:02:50.753Z,11.16
2022-08-05T23:05:24.802Z,11.22
2022-08-05T23:07:59.590Z,11.19
2022-08-05T23:10:34.137Z,11.19
2022-08-05T23:13:03.651Z,11.21
2022-08-05T23:15:35.273Z,11.15
2022-08-05T23:21:58.813Z,11.09
2022-08-05T23:24:28.608Z,11.01
2022-08-05T23:26:58.190Z,10.75
2022-08-05T23:29:34.469Z,11.03
2022-08-05T23:32:02.876Z,11.08
2022-08-05T23:34:32.470Z,11.17
2022-08-05T23:37:05.375Z,11.13
2022-08-05T23:39:54.517Z,10.92
2022-08-05T23:42:29.260Z,10.78
2022-08-05T23:44:58.821Z,10.83
2022-08-05T23:47:33.588Z,10.79
2022-08-05T23:50:03.593Z,10.66
2022-08-05T23:52:49.506Z,10.71
2022-08-05T23:55:22.602Z,10.55
2022-08-05T23:58:00.289Z,10.50
